sensor_id;sensor_type;location;lat;lon;timestamp;P1;durP1;ratioP1;P2;durP2;ratioP2
6785;SDS011;3430;51.192;6.048;2022-08-19T00:02:09;5.83;;;4.63;;
6785;SDS011;3430;51.192;6.048;2022-08-19T00:04:35;5.77;;;5.17;;
6785;SDS011;3430;51.192;6.048;2022-08-19T00:07:02;6.13;;;5.40;;
6785;SDS011;3430;51.192;6.048;2022-08-19T00:09:31;5.87;;;5.00;;
6785;SDS011;3430;51.192;6.048;2022-08-19T00:11:57;5.03;;;4.53;;
6785;SDS011;3430;51.192;6.048;2022-08-19T00:14:23;8.83;;;5.23;;
6785;SDS011;3430;51.192;6.048;2022-08-19T00:16:49;5.93;;;4.80;;
6785;SDS011;3430;51.192;6.048;2022-08-19T00:19:16;6.83;;;5.23;;
6785;SDS011;3430;51.192;6.048;2022-08-19T00:21:42;8.53;;;5.17;;
6785;SDS011;3430;51.192;6.048;2022-08-19T00:24:11;5.57;;;4.47;;
6785;SDS011;3430;51.192;6.048;2022-08-19T00:26:37;5.83;;;4.97;;
6785;SDS011;3430;51.192;6.048;2022-08-19T00:29:04;7.07;;;4.50;;
6785;SDS011;3430;51.192;6.048;2022-08-19T00:31:29;5.03;;;4.53;;
6785;SDS011;3430;51.192;6.048;2022-08-19T00:33:56;5.07;;;4.57;;
6785;SDS011;3430;51.192;6.048;2022-08-19T00:36:25;5.57;;;5.07;;
6785;SDS011;3430;51.192;6.048;2022-08-19T00:38:50;5.77;;;5.03;;
6785;SDS011;3430;51.192;6.048;2022-08-19T00:41:18;5.00;;;4.47;;
6785;SDS011;3430;51.192;6.048;2022-08-19T00:46:30;6.10;;;5.40;;
6785;SDS011;3430;51.192;6.048;2022-08-19T00:48:57;5.30;;;4.80;;
6785;SDS011;3430;51.192;6.048;2022-08-19T00:51:25;5.87;;;4.93;;
6785;SDS011;3430;51.192;6.048;2022-08-19T00:53:50;7.20;;;4.70;;
6785;SDS011;3430;51.192;6.048;2022-08-19T00:56:16;5.30;;;4.80;;
6785;SDS011;3430;51.192;6.048;2022-08-19T00:58:42;5.00;;;4.50;;
6785;SDS011;3430;51.192;6.048;2022-08-19T01:01:08;5.57;;;4.93;;
6785;SDS011;3430;51.192;6.048;2022-08-19T01:03:33;5.97;;;5.27;;
6785;SDS011;3430;51.192;6.048;2022-08-19T01:05:59;4.93;;;4.50;;
6785;SDS011;3430;51.192;6.048;2022-08-19T01:08:25;5.03;;;4.53;;
6785;SDS011;3430;51.192;6.048;2022-08-19T01:10:55;5.87;;;4.73;;
6785;SDS011;3430;51.192;6.048;2022-08-19T01:13:22;5.07;;;4.57;;
6785;SDS011;3430;51.192;6.048;2022-08-19T01:15:50;5.30;;;4.80;;
6785;SDS011;3430;51.192;6.048;2022-08-19T01:18:18;4.63;;;4.23;;
6785;SDS011;3430;51.192;6.048;2022-08-19T01:20:44;5.47;;;4.97;;
6785;SDS011;3430;51.192;6.048;2022-08-19T01:23:12;6.57;;;5.03;;
6785;SDS011;3430;51.192;6.048;2022-08-19T01:25:42;5.00;;;4.50;;
6785;SDS011;3430;51.192;6.048;2022-08-19T01:28:14;5.33;;;4.83;;
6785;SDS011;3430;51.192;6.048;2022-08-19T01:30:40;5.50;;;4.90;;
6785;SDS011;3430;51.192;6.048;2022-08-19T01:33:05;6.13;;;4.80;;
6785;SDS011;3430;51.192;6.048;2022-08-19T01:35:31;7.30;;;5.00;;
6785;SDS011;3430;51.192;6.048;2022-08-19T01:38:02;5.50;;;4.87;;
6785;SDS011;3430;51.192;6.048;2022-08-19T01:40:29;5.27;;;4.70;;
6785;SDS011;3430;51.192;6.048;2022-08-19T01:42:56;6.07;;;4.40;;
6785;SDS011;3430;51.192;6.048;2022-08-19T01:45:23;4.83;;;4.33;;
6785;SDS011;3430;51.192;6.048;2022-08-19T01:47:49;5.03;;;4.53;;
6785;SDS011;3430;51.192;6.048;2022-08-19T01:50:14;5.43;;;4.93;;
6785;SDS011;3430;51.192;6.048;2022-08-19T01:52:41;5.23;;;4.57;;
6785;SDS011;3430;51.192;6.048;2022-08-19T01:55:08;5.63;;;5.13;;
6785;SDS011;3430;51.192;6.048;2022-08-19T01:57:34;5.83;;;4.77;;
6785;SDS011;3430;51.192;6.048;2022-08-19T02:00:06;4.60;;;4.20;;
6785;SDS011;3430;51.192;6.048;2022-08-19T02:02:32;5.00;;;4.50;;
6785;SDS011;3430;51.192;6.048;2022-08-19T02:05:00;5.20;;;4.70;;
6785;SDS011;3430;51.192;6.048;2022-08-19T02:07:26;5.23;;;4.73;;
6785;SDS011;3430;51.192;6.048;2022-08-19T02:09:53;5.17;;;4.67;;
6785;SDS011;3430;51.192;6.048;2022-08-19T02:12:20;7.17;;;5.20;;
6785;SDS011;3430;51.192;6.048;2022-08-19T02:14:46;4.90;;;4.40;;
6785;SDS011;3430;51.192;6.048;2022-08-19T02:17:11;5.63;;;5.10;;
6785;SDS011;3430;51.192;6.048;2022-08-19T02:19:37;5.73;;;4.80;;
6785;SDS011;3430;51.192;6.048;2022-08-19T02:22:02;6.13;;;4.93;;
6785;SDS011;3430;51.192;6.048;2022-08-19T02:24:28;6.53;;;5.53;;
6785;SDS011;3430;51.192;6.048;2022-08-19T02:26:54;6.03;;;5.37;;
6785;SDS011;3430;51.192;6.048;2022-08-19T02:29:19;5.70;;;5.10;;
6785;SDS011;3430;51.192;6.048;2022-08-19T02:31:45;5.70;;;5.10;;
6785;SDS011;3430;51.192;6.048;2022-08-19T02:34:11;6.60;;;5.53;;
6785;SDS011;3430;51.192;6.048;2022-08-19T02:36:36;5.30;;;4.77;;
6785;SDS011;3430;51.192;6.048;2022-08-19T02:39:02;5.13;;;4.63;;
6785;SDS011;3430;51.192;6.048;2022-08-19T02:41:29;5.60;;;4.87;;
6785;SDS011;3430;51.192;6.048;2022-08-19T02:43:58;6.13;;;5.07;;
6785;SDS011;3430;51.192;6.048;2022-08-19T02:46:25;5.50;;;5.00;;
6785;SDS011;3430;51.192;6.048;2022-08-19T02:48:53;5.57;;;4.97;;
6785;SDS011;3430;51.192;6.048;2022-08-19T02:51:20;5.07;;;4.50;;
6785;SDS011;3430;51.192;6.048;2022-08-19T02:53:46;5.37;;;4.60;;
6785;SDS011;3430;51.192;6.048;2022-08-19T02:56:12;7.77;;;5.37;;
6785;SDS011;3430;51.192;6.048;2022-08-19T02:58:37;5.50;;;5.00;;
6785;SDS011;3430;51.192;6.048;2022-08-19T03:01:03;5.93;;;5.33;;
6785;SDS011;3430;51.192;6.048;2022-08-19T03:03:29;5.73;;;5.10;;
6785;SDS011;3430;51.192;6.048;2022-08-19T03:06:11;5.27;;;4.77;;
6785;SDS011;3430;51.192;6.048;2022-08-19T03:08:39;4.93;;;4.43;;
6785;SDS011;3430;51.192;6.048;2022-08-19T03:11:04;5.77;;;4.73;;
6785;SDS011;3430;51.192;6.048;2022-08-19T03:13:30;5.67;;;5.07;;
6785;SDS011;3430;51.192;6.048;2022-08-19T03:15:55;5.23;;;4.63;;
6785;SDS011;3430;51.192;6.048;2022-08-19T03:18:22;5.47;;;4.97;;
6785;SDS011;3430;51.192;6.048;2022-08-19T03:20:48;5.87;;;4.70;;
6785;SDS011;3430;51.192;6.048;2022-08-19T03:23:14;4.93;;;4.53;;
6785;SDS011;3430;51.192;6.048;2022-08-19T03:25:41;5.23;;;4.73;;
6785;SDS011;3430;51.192;6.048;2022-08-19T03:28:09;4.77;;;4.27;;
6785;SDS011;3430;51.192;6.048;2022-08-19T03:30:34;5.50;;;5.00;;
6785;SDS011;3430;51.192;6.048;2022-08-19T03:33:00;5.17;;;4.63;;
6785;SDS011;3430;51.192;6.048;2022-08-19T03:35:26;4.67;;;4.27;;
6785;SDS011;3430;51.192;6.048;2022-08-19T03:37:52;4.77;;;4.37;;
6785;SDS011;3430;51.192;6.048;2022-08-19T03:40:18;5.30;;;4.80;;
6785;SDS011;3430;51.192;6.048;2022-08-19T03:42:44;5.53;;;4.63;;
6785;SDS011;3430;51.192;6.048;2022-08-19T03:45:11;5.90;;;5.27;;
6785;SDS011;3430;51.192;6.048;2022-08-19T03:47:36;8.53;;;5.37;;
6785;SDS011;3430;51.192;6.048;2022-08-19T03:50:05;4.90;;;4.47;;
6785;SDS011;3430;51.192;6.048;2022-08-19T03:52:30;5.13;;;4.63;;
6785;SDS011;3430;51.192;6.048;2022-08-19T03:54:56;5.40;;;4.77;;
6785;SDS011;3430;51.192;6.048;2022-08-19T03:57:21;5.33;;;4.83;;
6785;SDS011;3430;51.192;6.048;2022-08-19T03:59:47;7.63;;;5.10;;
6785;SDS011;3430;51.192;6.048;2022-08-19T04:02:12;6.90;;;5.20;;
6785;SDS011;3430;51.192;6.048;2022-08-19T04:04:39;6.33;;;5.00;;
6785;SDS011;3430;51.192;6.048;2022-08-19T04:07:05;7.63;;;5.63;;
6785;SDS011;3430;51.192;6.048;2022-08-19T04:09:30;5.57;;;4.80;;
6785;SDS011;3430;51.192;6.048;2022-08-19T04:11:56;6.53;;;5.60;;
6785;SDS011;3430;51.192;6.048;2022-08-19T04:14:24;6.80;;;5.20;;
6785;SDS011;3430;51.192;6.048;2022-08-19T04:16:50;6.00;;;5.03;;
6785;SDS011;3430;51.192;6.048;2022-08-19T04:19:16;5.37;;;4.80;;
6785;SDS011;3430;51.192;6.048;2022-08-19T04:21:43;5.73;;;4.97;;
6785;SDS011;3430;51.192;6.048;2022-08-19T04:24:10;5.93;;;5.03;;
6785;SDS011;3430;51.192;6.048;2022-08-19T04:26:39;7.17;;;5.40;;
6785;SDS011;3430;51.192;6.048;2022-08-19T04:29:06;6.53;;;5.70;;
6785;SDS011;3430;51.192;6.048;2022-08-19T04:31:32;5.97;;;5.13;;
6785;SDS011;3430;51.192;6.048;2022-08-19T04:34:01;5.47;;;5.00;;
6785;SDS011;3430;51.192;6.048;2022-08-19T04:36:28;6.17;;;5.50;;
6785;SDS011;3430;51.192;6.048;2022-08-19T04:38:56;5.80;;;5.20;;
6785;SDS011;3430;51.192;6.048;2022-08-19T04:41:25;5.47;;;4.93;;
6785;SDS011;3430;51.192;6.048;2022-08-19T04:44:09;7.07;;;5.23;;
6785;SDS011;3430;51.192;6.048;2022-08-19T04:46:35;5.77;;;5.17;;
6785;SDS011;3430;51.192;6.048;2022-08-19T04:49:02;7.83;;;5.27;;
6785;SDS011;3430;51.192;6.048;2022-08-19T04:51:27;6.63;;;4.63;;
6785;SDS011;3430;51.192;6.048;2022-08-19T04:53:56;6.10;;;4.73;;
6785;SDS011;3430;51.192;6.048;2022-08-19T04:56:21;5.57;;;4.70;;
6785;SDS011;3430;51.192;6.048;2022-08-19T04:58:49;5.63;;;5.10;;
6785;SDS011;3430;51.192;6.048;2022-08-19T05:01:18;5.80;;;5.20;;
6785;SDS011;3430;51.192;6.048;2022-08-19T05:03:44;9.23;;;6.07;;
6785;SDS011;3430;51.192;6.048;2022-08-19T05:06:13;6.53;;;5.80;;
6785;SDS011;3430;51.192;6.048;2022-08-19T05:08:40;6.17;;;5.57;;
6785;SDS011;3430;51.192;6.048;2022-08-19T05:11:09;6.80;;;5.67;;
6785;SDS011;3430;51.192;6.048;2022-08-19T05:13:36;6.03;;;5.43;;
6785;SDS011;3430;51.192;6.048;2022-08-19T05:16:01;7.33;;;6.40;;
6785;SDS011;3430;51.192;6.048;2022-08-19T05:18:27;6.93;;;5.90;;
6785;SDS011;3430;51.192;6.048;2022-08-19T05:21:11;6.70;;;6.00;;
6785;SDS011;3430;51.192;6.048;2022-08-19T05:23:56;7.10;;;6.33;;
6785;SDS011;3430;51.192;6.048;2022-08-19T05:26:22;10.67;;;6.03;;
6785;SDS011;3430;51.192;6.048;2022-08-19T05:28:48;8.67;;;6.93;;
6785;SDS011;3430;51.192;6.048;2022-08-19T05:31:13;6.80;;;5.33;;
6785;SDS011;3430;51.192;6.048;2022-08-19T05:33:38;6.87;;;6.17;;
6785;SDS011;3430;51.192;6.048;2022-08-19T05:36:05;6.00;;;5.40;;
6785;SDS011;3430;51.192;6.048;2022-08-19T05:38:33;8.20;;;5.67;;
6785;SDS011;3430;51.192;6.048;2022-08-19T05:40:58;7.43;;;6.07;;
6785;SDS011;3430;51.192;6.048;2022-08-19T05:43:24;6.00;;;5.40;;
6785;SDS011;3430;51.192;6.048;2022-08-19T05:45:49;6.57;;;5.43;;
6785;SDS011;3430;51.192;6.048;2022-08-19T05:48:15;6.97;;;6.13;;
6785;SDS011;3430;51.192;6.048;2022-08-19T05:50:48;6.87;;;5.43;;
6785;SDS011;3430;51.192;6.048;2022-08-19T05:53:15;7.27;;;6.23;;
6785;SDS011;3430;51.192;6.048;2022-08-19T05:55:41;7.50;;;6.13;;
6785;SDS011;3430;51.192;6.048;2022-08-19T05:58:07;6.47;;;5.40;;
6785;SDS011;3430;51.192;6.048;2022-08-19T06:00:33;7.63;;;6.43;;
6785;SDS011;3430;51.192;6.048;2022-08-19T06:02:58;8.27;;;6.87;;
6785;SDS011;3430;51.192;6.048;2022-08-19T06:05:28;7.30;;;6.20;;
6785;SDS011;3430;51.192;6.048;2022-08-19T06:07:53;7.87;;;6.47;;
6785;SDS011;3430;51.192;6.048;2022-08-19T06:10:19;8.60;;;6.23;;
6785;SDS011;3430;51.192;6.048;2022-08-19T06:12:46;7.63;;;6.70;;
6785;SDS011;3430;51.192;6.048;2022-08-19T06:15:12;9.60;;;7.83;;
6785;SDS011;3430;51.192;6.048;2022-08-19T06:17:38;9.97;;;7.57;;
6785;SDS011;3430;51.192;6.048;2022-08-19T06:20:05;10.47;;;7.93;;
6785;SDS011;3430;51.192;6.048;2022-08-19T06:22:31;11.57;;;8.40;;
6785;SDS011;3430;51.192;6.048;2022-08-19T06:24:56;11.63;;;8.50;;
6785;SDS011;3430;51.192;6.048;2022-08-19T06:27:22;12.67;;;8.60;;
6785;SDS011;3430;51.192;6.048;2022-08-19T06:29:48;13.77;;;8.13;;
6785;SDS011;3430;51.192;6.048;2022-08-19T06:32:14;10.37;;;8.20;;
6785;SDS011;3430;51.192;6.048;2022-08-19T06:34:41;10.97;;;8.60;;
6785;SDS011;3430;51.192;6.048;2022-08-19T06:37:06;13.23;;;6.90;;
6785;SDS011;3430;51.192;6.048;2022-08-19T06:39:37;7.37;;;5.93;;
6785;SDS011;3430;51.192;6.048;2022-08-19T06:42:04;6.23;;;5.10;;
6785;SDS011;3430;51.192;6.048;2022-08-19T06:44:33;8.37;;;6.33;;
6785;SDS011;3430;51.192;6.048;2022-08-19T06:47:00;8.27;;;6.13;;
6785;SDS011;3430;51.192;6.048;2022-08-19T06:49:27;11.13;;;6.40;;
6785;SDS011;3430;51.192;6.048;2022-08-19T06:51:55;8.70;;;5.87;;
6785;SDS011;3430;51.192;6.048;2022-08-19T06:54:22;8.17;;;5.93;;
6785;SDS011;3430;51.192;6.048;2022-08-19T06:56:48;6.80;;;5.67;;
6785;SDS011;3430;51.192;6.048;2022-08-19T06:59:17;8.73;;;5.77;;
6785;SDS011;3430;51.192;6.048;2022-08-19T07:01:44;8.33;;;5.90;;
6785;SDS011;3430;51.192;6.048;2022-08-19T07:04:12;5.33;;;4.67;;
6785;SDS011;3430;51.192;6.048;2022-08-19T07:06:38;7.33;;;5.40;;
6785;SDS011;3430;51.192;6.048;2022-08-19T07:09:04;5.93;;;5.17;;
6785;SDS011;3430;51.192;6.048;2022-08-19T07:11:30;6.30;;;5.70;;
6785;SDS011;3430;51.192;6.048;2022-08-19T07:13:55;5.60;;;5.00;;
6785;SDS011;3430;51.192;6.048;2022-08-19T07:16:21;6.53;;;5.30;;
6785;SDS011;3430;51.192;6.048;2022-08-19T07:18:50;6.63;;;5.73;;
6785;SDS011;3430;51.192;6.048;2022-08-19T07:21:17;8.73;;;5.83;;
6785;SDS011;3430;51.192;6.048;2022-08-19T07:23:45;8.00;;;5.53;;
6785;SDS011;3430;51.192;6.048;2022-08-19T07:26:15;8.20;;;5.20;;
6785;SDS011;3430;51.192;6.048;2022-08-19T07:28:44;9.77;;;6.67;;
6785;SDS011;3430;51.192;6.048;2022-08-19T07:31:11;9.73;;;5.83;;
6785;SDS011;3430;51.192;6.048;2022-08-19T07:33:38;7.67;;;5.97;;
6785;SDS011;3430;51.192;6.048;2022-08-19T07:36:04;8.47;;;6.10;;
6785;SDS011;3430;51.192;6.048;2022-08-19T07:38:30;9.13;;;5.60;;
6785;SDS011;3430;51.192;6.048;2022-08-19T07:40:55;6.57;;;5.40;;
6785;SDS011;3430;51.192;6.048;2022-08-19T07:43:21;8.83;;;5.70;;
6785;SDS011;3430;51.192;6.048;2022-08-19T07:45:50;7.13;;;5.93;;
6785;SDS011;3430;51.192;6.048;2022-08-19T07:48:16;8.27;;;5.90;;
6785;SDS011;3430;51.192;6.048;2022-08-19T07:50:42;7.53;;;5.63;;
6785;SDS011;3430;51.192;6.048;2022-08-19T07:53:10;8.77;;;5.47;;
6785;SDS011;3430;51.192;6.048;2022-08-19T07:55:37;8.13;;;5.73;;
6785;SDS011;3430;51.192;6.048;2022-08-19T07:58:02;9.77;;;5.87;;
6785;SDS011;3430;51.192;6.048;2022-08-19T08:00:29;8.83;;;6.10;;
6785;SDS011;3430;51.192;6.048;2022-08-19T08:02:55;7.93;;;5.97;;
6785;SDS011;3430;51.192;6.048;2022-08-19T08:05:20;8.63;;;6.00;;
6785;SDS011;3430;51.192;6.048;2022-08-19T08:08:04;6.80;;;5.33;;
6785;SDS011;3430;51.192;6.048;2022-08-19T08:10:48;7.53;;;5.23;;
6785;SDS011;3430;51.192;6.048;2022-08-19T08:13:13;6.97;;;5.27;;
6785;SDS011;3430;51.192;6.048;2022-08-19T08:15:39;7.30;;;5.93;;
6785;SDS011;3430;51.192;6.048;2022-08-19T08:18:05;10.03;;;5.10;;
6785;SDS011;3430;51.192;6.048;2022-08-19T08:20:31;8.03;;;5.13;;
6785;SDS011;3430;51.192;6.048;2022-08-19T08:22:56;7.70;;;5.73;;
6785;SDS011;3430;51.192;6.048;2022-08-19T08:25:40;9.17;;;5.30;;
6785;SDS011;3430;51.192;6.048;2022-08-19T08:28:05;10.40;;;5.67;;
6785;SDS011;3430;51.192;6.048;2022-08-19T08:30:32;7.30;;;5.10;;
6785;SDS011;3430;51.192;6.048;2022-08-19T08:32:59;6.33;;;5.20;;
6785;SDS011;3430;51.192;6.048;2022-08-19T08:35:25;13.63;;;5.57;;
6785;SDS011;3430;51.192;6.048;2022-08-19T08:37:52;7.27;;;5.20;;
6785;SDS011;3430;51.192;6.048;2022-08-19T08:42:55;6.67;;;4.50;;
6785;SDS011;3430;51.192;6.048;2022-08-19T08:45:25;7.37;;;5.10;;
6785;SDS011;3430;51.192;6.048;2022-08-19T08:47:55;7.03;;;5.20;;
6785;SDS011;3430;51.192;6.048;2022-08-19T08:50:28;6.70;;;5.10;;
6785;SDS011;3430;51.192;6.048;2022-08-19T08:52:55;7.43;;;5.13;;
6785;SDS011;3430;51.192;6.048;2022-08-19T08:55:25;6.87;;;4.93;;
6785;SDS011;3430;51.192;6.048;2022-08-19T08:57:53;6.40;;;4.27;;
6785;SDS011;3430;51.192;6.048;2022-08-19T09:00:26;9.70;;;4.53;;
6785;SDS011;3430;51.192;6.048;2022-08-19T09:02:53;6.77;;;4.73;;
6785;SDS011;3430;51.192;6.048;2022-08-19T09:05:19;6.80;;;4.70;;
6785;SDS011;3430;51.192;6.048;2022-08-19T09:10:19;6.13;;;4.70;;
6785;SDS011;3430;51.192;6.048;2022-08-19T09:13:00;5.33;;;4.03;;
6785;SDS011;3430;51.192;6.048;2022-08-19T09:15:42;6.10;;;4.17;;
6785;SDS011;3430;51.192;6.048;2022-08-19T09:18:09;4.27;;;3.73;;
6785;SDS011;3430;51.192;6.048;2022-08-19T09:20:37;5.47;;;4.13;;
6785;SDS011;3430;51.192;6.048;2022-08-19T09:23:02;4.83;;;4.33;;
6785;SDS011;3430;51.192;6.048;2022-08-19T09:25:28;6.17;;;4.77;;
6785;SDS011;3430;51.192;6.048;2022-08-19T09:27:55;8.90;;;4.10;;
6785;SDS011;3430;51.192;6.048;2022-08-19T09:30:25;4.23;;;3.83;;
6785;SDS011;3430;51.192;6.048;2022-08-19T09:32:51;9.07;;;3.80;;
6785;SDS011;3430;51.192;6.048;2022-08-19T09:35:20;6.80;;;4.30;;
6785;SDS011;3430;51.192;6.048;2022-08-19T09:37:49;5.53;;;4.53;;
6785;SDS011;3430;51.192;6.048;2022-08-19T09:40:15;9.00;;;4.27;;
6785;SDS011;3430;51.192;6.048;2022-08-19T09:42:41;7.13;;;4.13;;
6785;SDS011;3430;51.192;6.048;2022-08-19T09:45:09;5.53;;;4.00;;
6785;SDS011;3430;51.192;6.048;2022-08-19T09:47:34;6.20;;;4.03;;
6785;SDS011;3430;51.192;6.048;2022-08-19T09:50:04;5.83;;;3.73;;
6785;SDS011;3430;51.192;6.048;2022-08-19T09:52:30;5.23;;;3.70;;
6785;SDS011;3430;51.192;6.048;2022-08-19T09:54:56;4.73;;;3.67;;
6785;SDS011;3430;51.192;6.048;2022-08-19T09:57:21;5.53;;;3.50;;
6785;SDS011;3430;51.192;6.048;2022-08-19T09:59:47;6.50;;;4.00;;
6785;SDS011;3430;51.192;6.048;2022-08-19T10:02:13;4.03;;;3.57;;
6785;SDS011;3430;51.192;6.048;2022-08-19T10:04:38;5.47;;;4.10;;
6785;SDS011;3430;51.192;6.048;2022-08-19T10:07:24;4.63;;;4.13;;
6785;SDS011;3430;51.192;6.048;2022-08-19T10:09:50;9.83;;;4.83;;
6785;SDS011;3430;51.192;6.048;2022-08-19T10:12:18;4.37;;;3.90;;
6785;SDS011;3430;51.192;6.048;2022-08-19T10:14:44;6.87;;;3.93;;
6785;SDS011;3430;51.192;6.048;2022-08-19T10:17:10;6.20;;;4.00;;
6785;SDS011;3430;51.192;6.048;2022-08-19T10:19:36;7.40;;;4.60;;
6785;SDS011;3430;51.192;6.048;2022-08-19T10:22:05;4.97;;;3.60;;
6785;SDS011;3430;51.192;6.048;2022-08-19T10:24:32;5.73;;;3.93;;
6785;SDS011;3430;51.192;6.048;2022-08-19T10:26:59;4.67;;;3.97;;
6785;SDS011;3430;51.192;6.048;2022-08-19T10:29:24;4.67;;;4.17;;
6785;SDS011;3430;51.192;6.048;2022-08-19T10:31:49;5.53;;;3.90;;
6785;SDS011;3430;51.192;6.048;2022-08-19T10:34:15;5.43;;;4.87;;
6785;SDS011;3430;51.192;6.048;2022-08-19T10:36:41;5.83;;;3.70;;
6785;SDS011;3430;51.192;6.048;2022-08-19T10:39:07;8.67;;;4.00;;
6785;SDS011;3430;51.192;6.048;2022-08-19T10:41:38;6.37;;;4.50;;
6785;SDS011;3430;51.192;6.048;2022-08-19T10:44:05;6.67;;;4.23;;
6785;SDS011;3430;51.192;6.048;2022-08-19T10:46:31;6.57;;;4.47;;
6785;SDS011;3430;51.192;6.048;2022-08-19T10:48:58;8.87;;;4.67;;
6785;SDS011;3430;51.192;6.048;2022-08-19T10:51:23;7.07;;;4.37;;
6785;SDS011;3430;51.192;6.048;2022-08-19T10:54:07;5.77;;;4.10;;
6785;SDS011;3430;51.192;6.048;2022-08-19T10:56:33;5.43;;;4.67;;
6785;SDS011;3430;51.192;6.048;2022-08-19T10:59:18;5.20;;;4.13;;
6785;SDS011;3430;51.192;6.048;2022-08-19T11:01:45;5.53;;;3.87;;
6785;SDS011;3430;51.192;6.048;2022-08-19T11:04:10;5.07;;;3.93;;
6785;SDS011;3430;51.192;6.048;2022-08-19T11:06:39;4.90;;;4.40;;
6785;SDS011;3430;51.192;6.048;2022-08-19T11:09:06;5.63;;;4.00;;
6785;SDS011;3430;51.192;6.048;2022-08-19T11:11:31;4.77;;;4.27;;
6785;SDS011;3430;51.192;6.048;2022-08-19T11:13:57;5.40;;;4.50;;
6785;SDS011;3430;51.192;6.048;2022-08-19T11:16:26;6.33;;;4.30;;
6785;SDS011;3430;51.192;6.048;2022-08-19T11:18:57;8.20;;;4.40;;
6785;SDS011;3430;51.192;6.048;2022-08-19T11:21:33;4.93;;;4.17;;
6785;SDS011;3430;51.192;6.048;2022-08-19T11:24:03;4.23;;;3.83;;
6785;SDS011;3430;51.192;6.048;2022-08-19T11:26:31;4.97;;;3.60;;
6785;SDS011;3430;51.192;6.048;2022-08-19T11:28:57;5.83;;;4.23;;
6785;SDS011;3430;51.192;6.048;2022-08-19T11:31:24;5.03;;;4.53;;
6785;SDS011;3430;51.192;6.048;2022-08-19T11:33:50;6.23;;;4.70;;
6785;SDS011;3430;51.192;6.048;2022-08-19T11:36:17;5.93;;;4.80;;
6785;SDS011;3430;51.192;6.048;2022-08-19T11:38:44;9.50;;;4.77;;
6785;SDS011;3430;51.192;6.048;2022-08-19T11:41:09;4.57;;;3.83;;
6785;SDS011;3430;51.192;6.048;2022-08-19T11:43:35;7.03;;;4.93;;
6785;SDS011;3430;51.192;6.048;2022-08-19T11:46:05;6.33;;;3.80;;
6785;SDS011;3430;51.192;6.048;2022-08-19T11:48:31;4.87;;;3.87;;
6785;SDS011;3430;51.192;6.048;2022-08-19T11:51:02;5.83;;;3.80;;
6785;SDS011;3430;51.192;6.048;2022-08-19T11:53:30;6.87;;;3.83;;
6785;SDS011;3430;51.192;6.048;2022-08-19T11:55:56;4.73;;;3.93;;
6785;SDS011;3430;51.192;6.048;2022-08-19T11:58:21;6.77;;;4.07;;
6785;SDS011;3430;51.192;6.048;2022-08-19T12:00:47;4.10;;;3.60;;
6785;SDS011;3430;51.192;6.048;2022-08-19T12:03:12;4.87;;;4.07;;
6785;SDS011;3430;51.192;6.048;2022-08-19T12:05:39;7.73;;;3.60;;
6785;SDS011;3430;51.192;6.048;2022-08-19T12:08:05;5.67;;;3.83;;
6785;SDS011;3430;51.192;6.048;2022-08-19T12:10:30;5.10;;;3.97;;
6785;SDS011;3430;51.192;6.048;2022-08-19T12:12:55;4.13;;;3.67;;
6785;SDS011;3430;51.192;6.048;2022-08-19T12:15:21;5.43;;;4.20;;
6785;SDS011;3430;51.192;6.048;2022-08-19T12:17:46;5.00;;;3.87;;
6785;SDS011;3430;51.192;6.048;2022-08-19T12:20:12;4.00;;;3.60;;
6785;SDS011;3430;51.192;6.048;2022-08-19T12:22:38;4.60;;;3.60;;
6785;SDS011;3430;51.192;6.048;2022-08-19T12:25:06;6.53;;;4.60;;
6785;SDS011;3430;51.192;6.048;2022-08-19T12:27:32;4.57;;;4.17;;
6785;SDS011;3430;51.192;6.048;2022-08-19T12:29:57;8.20;;;3.90;;
6785;SDS011;3430;51.192;6.048;2022-08-19T12:32:26;8.10;;;3.97;;
6785;SDS011;3430;51.192;6.048;2022-08-19T12:34:51;4.33;;;3.80;;
6785;SDS011;3430;51.192;6.048;2022-08-19T12:37:17;4.40;;;3.23;;
6785;SDS011;3430;51.192;6.048;2022-08-19T12:39:42;6.43;;;4.30;;
6785;SDS011;3430;51.192;6.048;2022-08-19T12:42:08;6.07;;;3.90;;
6785;SDS011;3430;51.192;6.048;2022-08-19T12:44:34;5.63;;;4.03;;
6785;SDS011;3430;51.192;6.048;2022-08-19T12:47:00;7.13;;;3.90;;
6785;SDS011;3430;51.192;6.048;2022-08-19T12:49:27;5.30;;;3.57;;
6785;SDS011;3430;51.192;6.048;2022-08-19T12:51:52;6.60;;;3.47;;
6785;SDS011;3430;51.192;6.048;2022-08-19T12:54:17;4.57;;;3.80;;
6785;SDS011;3430;51.192;6.048;2022-08-19T12:56:43;4.60;;;3.80;;
6785;SDS011;3430;51.192;6.048;2022-08-19T12:59:08;3.57;;;3.27;;
6785;SDS011;3430;51.192;6.048;2022-08-19T13:01:34;6.83;;;3.90;;
6785;SDS011;3430;51.192;6.048;2022-08-19T13:03:59;3.40;;;3.10;;
6785;SDS011;3430;51.192;6.048;2022-08-19T13:06:25;5.07;;;3.60;;
6785;SDS011;3430;51.192;6.048;2022-08-19T13:08:50;5.63;;;3.60;;
6785;SDS011;3430;51.192;6.048;2022-08-19T13:11:19;6.10;;;3.07;;
6785;SDS011;3430;51.192;6.048;2022-08-19T13:13:46;3.93;;;3.20;;
6785;SDS011;3430;51.192;6.048;2022-08-19T13:16:12;3.53;;;3.17;;
6785;SDS011;3430;51.192;6.048;2022-08-19T13:18:41;4.73;;;3.40;;
6785;SDS011;3430;51.192;6.048;2022-08-19T13:21:07;4.17;;;3.50;;
6785;SDS011;3430;51.192;6.048;2022-08-19T13:23:33;4.57;;;3.30;;
6785;SDS011;3430;51.192;6.048;2022-08-19T13:25:59;5.20;;;2.60;;
6785;SDS011;3430;51.192;6.048;2022-08-19T13:28:25;4.23;;;3.20;;
6785;SDS011;3430;51.192;6.048;2022-08-19T13:30:50;6.30;;;3.47;;
6785;SDS011;3430;51.192;6.048;2022-08-19T13:33:54;3.87;;;2.83;;
6785;SDS011;3430;51.192;6.048;2022-08-19T13:36:19;3.60;;;3.03;;
6785;SDS011;3430;51.192;6.048;2022-08-19T13:38:44;3.13;;;2.83;;
6785;SDS011;3430;51.192;6.048;2022-08-19T13:41:10;5.10;;;3.30;;
6785;SDS011;3430;51.192;6.048;2022-08-19T13:43:35;8.00;;;3.50;;
6785;SDS011;3430;51.192;6.048;2022-08-19T13:46:08;3.47;;;3.00;;
6785;SDS011;3430;51.192;6.048;2022-08-19T13:48:33;3.17;;;2.87;;
6785;SDS011;3430;51.192;6.048;2022-08-19T13:50:59;3.30;;;3.00;;
6785;SDS011;3430;51.192;6.048;2022-08-19T13:53:24;4.10;;;3.27;;
6785;SDS011;3430;51.192;6.048;2022-08-19T13:55:49;4.80;;;3.50;;
6785;SDS011;3430;51.192;6.048;2022-08-19T13:58:16;4.33;;;3.70;;
6785;SDS011;3430;51.192;6.048;2022-08-19T14:00:42;4.30;;;3.10;;
6785;SDS011;3430;51.192;6.048;2022-08-19T14:03:08;3.80;;;3.40;;
6785;SDS011;3430;51.192;6.048;2022-08-19T14:05:33;3.30;;;2.97;;
6785;SDS011;3430;51.192;6.048;2022-08-19T14:07:59;4.00;;;3.60;;
6785;SDS011;3430;51.192;6.048;2022-08-19T14:10:25;3.57;;;3.27;;
6785;SDS011;3430;51.192;6.048;2022-08-19T14:12:54;4.70;;;3.67;;
6785;SDS011;3430;51.192;6.048;2022-08-19T14:15:20;3.73;;;3.00;;
6785;SDS011;3430;51.192;6.048;2022-08-19T14:17:46;3.83;;;2.87;;
6785;SDS011;3430;51.192;6.048;2022-08-19T14:20:13;3.37;;;3.07;;
6785;SDS011;3430;51.192;6.048;2022-08-19T14:22:40;3.87;;;3.23;;
6785;SDS011;3430;51.192;6.048;2022-08-19T14:25:10;3.13;;;2.70;;
6785;SDS011;3430;51.192;6.048;2022-08-19T14:27:36;6.83;;;4.10;;
6785;SDS011;3430;51.192;6.048;2022-08-19T14:30:03;3.50;;;3.20;;
6785;SDS011;3430;51.192;6.048;2022-08-19T14:32:29;5.50;;;3.17;;
6785;SDS011;3430;51.192;6.048;2022-08-19T14:34:55;4.57;;;3.10;;
6785;SDS011;3430;51.192;6.048;2022-08-19T14:37:20;3.97;;;2.73;;
6785;SDS011;3430;51.192;6.048;2022-08-19T14:39:47;4.50;;;3.30;;
6785;SDS011;3430;51.192;6.048;2022-08-19T14:42:12;4.07;;;3.57;;
6785;SDS011;3430;51.192;6.048;2022-08-19T14:44:39;3.93;;;2.90;;
6785;SDS011;3430;51.192;6.048;2022-08-19T14:47:05;4.33;;;3.30;;
6785;SDS011;3430;51.192;6.048;2022-08-19T14:49:31;4.27;;;2.83;;
6785;SDS011;3430;51.192;6.048;2022-08-19T14:51:57;3.40;;;3.10;;
6785;SDS011;3430;51.192;6.048;2022-08-19T14:54:22;3.47;;;3.17;;
6785;SDS011;3430;51.192;6.048;2022-08-19T14:56:47;3.87;;;2.90;;
6785;SDS011;3430;51.192;6.048;2022-08-19T14:59:14;3.80;;;3.00;;
6785;SDS011;3430;51.192;6.048;2022-08-19T15:01:39;3.23;;;2.80;;
6785;SDS011;3430;51.192;6.048;2022-08-19T15:04:04;3.20;;;2.90;;
6785;SDS011;3430;51.192;6.048;2022-08-19T15:06:30;3.27;;;2.57;;
6785;SDS011;3430;51.192;6.048;2022-08-19T15:08:56;4.83;;;3.00;;
6785;SDS011;3430;51.192;6.048;2022-08-19T15:11:22;4.37;;;2.83;;
6785;SDS011;3430;51.192;6.048;2022-08-19T15:13:48;2.70;;;2.50;;
6785;SDS011;3430;51.192;6.048;2022-08-19T15:16:15;3.30;;;2.83;;
6785;SDS011;3430;51.192;6.048;2022-08-19T15:18:41;2.63;;;2.27;;
6785;SDS011;3430;51.192;6.048;2022-08-19T15:21:09;4.37;;;3.03;;
6785;SDS011;3430;51.192;6.048;2022-08-19T15:23:34;3.47;;;2.27;;